»·PEaware :: WOW323 BIKF-KEWR

WOW323 :: BIKF-KEWR

FLIGHT INFORMATION

Flight Status: Arrived
Operator:
Air Southwest
More flights by this operator :: More flights under this callsign
Pilot: Kyle K. (11122)
Aircraft: AIRBUS A330
(A330)
More flights by this aircraft type
Origin: BIKF Keflavik
Iceland
Destination: KEWR Newark Intl
United States
More flights between these airports :: More routes between these airports
Route: RALO2C RALOV 63N030W/M082F380 61N040W 58N050W/N0475F380 YYR/N0472F400 N606A YRI J563 YSC ALB SHAFF7
File this flight plan on PilotEdge
Remarks:
Altitude:
(Current/Filed)
36,000ft
Speed:
(Current/Filed)
474kts
Departed: 20-Feb-18 06:17 PM
Arrived: 21-Feb-18 12:19 AM
Distance/Time
Traveled:
2254nm/6:02
Distance/Time
To Go:
Arrived

Flight Plot

Page will automatically refresh every two minutes.

Flight plan parsing failed; only flown route is shown


Map Options




Map Legend


Flown Route
Filed Route
Departure Airport
Arrival Airport
Navaid (VOR, NDB)
Fix

Horizontal Profiles

Position Reports

Time Latitude Longitude Heading Altitude Ground
Speed
20-Feb-18 18:18 63.992691 -22.624583 0 143ft 0kts
20-Feb-18 18:19 63.992691 -22.624583 360 143ft 0kts
20-Feb-18 18:20 63.992819 -22.624519 36 144ft 2kts
20-Feb-18 18:21 63.992378 -22.620481 113 144ft 4kts
20-Feb-18 18:22 63.991750 -22.613746 88 144ft 6kts
20-Feb-18 18:23 63.991579 -22.605625 140 147ft 8kts
20-Feb-18 18:24 63.984944 -22.605488 179 157ft 93kts
20-Feb-18 18:25 63.943186 -22.606075 175 1701ft 158kts
20-Feb-18 18:26 63.896072 -22.629248 232 2519ft 222kts
20-Feb-18 18:27 63.894044 -22.789200 269 4195ft 271kts
20-Feb-18 18:28 63.896888 -22.963033 269 5748ft 281kts
20-Feb-18 18:29 63.900301 -23.142329 266 8171ft 290kts
20-Feb-18 18:30 63.903037 -23.326950 264 10308ft 306kts
20-Feb-18 18:31 63.903443 -23.541394 263 11096ft 372kts
20-Feb-18 18:32 63.903074 -23.738536 261 13208ft 378kts
20-Feb-18 18:33 63.902054 -24.021133 260 15993ft 388kts
20-Feb-18 18:34 63.900554 -24.225351 259 17877ft 392kts
20-Feb-18 18:35 63.896770 -24.516014 257 20347ft 398kts
20-Feb-18 18:36 63.891921 -24.724186 254 22042ft 398kts
20-Feb-18 18:37 63.875137 -24.969913 245 23887ft 390kts
20-Feb-18 18:38 63.845831 -25.208587 243 25355ft 398kts
20-Feb-18 18:39 63.813889 -25.449137 242 26943ft 399kts
20-Feb-18 18:40 63.780491 -25.687881 240 28391ft 399kts
20-Feb-18 18:41 63.745937 -25.923708 241 30278ft 387kts
20-Feb-18 18:42 63.712662 -26.149490 241 32040ft 373kts
20-Feb-18 18:43 63.679822 -26.366205 240 33494ft 361kts
20-Feb-18 18:44 63.647151 -26.577291 241 34513ft 356kts
20-Feb-18 18:45 63.613486 -26.785076 239 35332ft 354kts
20-Feb-18 18:46 63.580428 -26.992181 239 36033ft 350kts
20-Feb-18 18:47 63.548087 -27.200378 237 36046ft 358kts
20-Feb-18 18:48 63.513214 -27.407417 237 36044ft 354kts
20-Feb-18 18:49 63.477755 -27.613361 236 36038ft 354kts
20-Feb-18 18:50 63.441099 -27.817738 236 36047ft 355kts
20-Feb-18 18:51 63.404568 -28.020940 236 36052ft 355kts
20-Feb-18 18:52 63.367427 -28.224302 234 36047ft 350kts
20-Feb-18 18:53 63.329963 -28.426193 235 36042ft 355kts
20-Feb-18 18:54 63.291857 -28.626806 235 36040ft 352kts
20-Feb-18 18:55 63.253294 -28.821561 234 36042ft 352kts
20-Feb-18 18:56 63.214811 -29.022342 233 36202ft 356kts
20-Feb-18 18:57 63.176968 -29.216597 231 36944ft 345kts
20-Feb-18 18:58 63.137965 -29.405507 230 37747ft 332kts
20-Feb-18 18:59 63.100260 -29.588466 231 38297ft 322kts
20-Feb-18 19:00 63.060288 -29.764817 228 38254ft 322kts
20-Feb-18 19:01 63.021811 -29.943392 231 38254ft 325kts
20-Feb-18 19:02 62.979469 -30.114722 208 37889ft 307kts
20-Feb-18 19:03 62.896161 -30.091474 196 37942ft 302kts
20-Feb-18 19:04 62.865938 -30.266315 275 37801ft 444kts
20-Feb-18 19:05 62.923485 -30.506930 245 37791ft 378kts
20-Feb-18 19:06 62.890571 -30.710904 237 37793ft 364kts
20-Feb-18 19:07 62.863326 -30.926295 239 37791ft 368kts
20-Feb-18 19:08 62.835326 -31.141769 240 37776ft 374kts
20-Feb-18 19:09 62.805559 -31.363550 240 37777ft 388kts
20-Feb-18 19:10 62.774795 -31.591428 240 37783ft 393kts
20-Feb-18 19:11 62.742924 -31.817997 240 37781ft 389kts
20-Feb-18 19:12 62.711146 -32.043380 239 37781ft 392kts
20-Feb-18 19:13 62.678632 -32.268705 239 37778ft 391kts
20-Feb-18 19:14 62.645124 -32.493185 239 37775ft 389kts
20-Feb-18 19:15 62.611040 -32.715275 237 37773ft 389kts
20-Feb-18 19:16 62.575947 -32.936959 237 37783ft 389kts
20-Feb-18 19:17 62.537962 -33.160221 239 37785ft 401kts
20-Feb-18 19:18 62.499726 -33.389367 240 37776ft 406kts
20-Feb-18 19:19 62.461321 -33.618425 240 37775ft 406kts
20-Feb-18 19:20 62.421834 -33.844583 239 37783ft 404kts
20-Feb-18 19:21 62.382047 -34.071115 239 37781ft 404kts
20-Feb-18 19:22 62.341531 -34.297012 239 37781ft 404kts
20-Feb-18 19:23 62.300461 -34.520999 239 37778ft 404kts
20-Feb-18 19:24 62.258297 -34.743791 237 37780ft 402kts
20-Feb-18 19:25 62.215033 -34.965720 238 37778ft 407kts
20-Feb-18 19:26 62.170137 -35.189688 239 37774ft 411kts
20-Feb-18 19:27 62.125152 -35.413772 239 37774ft 412kts
20-Feb-18 19:28 62.079544 -35.636744 238 37778ft 410kts
20-Feb-18 19:29 62.032828 -35.857860 237 37777ft 410kts
20-Feb-18 19:30 61.985942 -36.078757 237 37777ft 410kts
20-Feb-18 19:31 61.938468 -36.298610 237 37775ft 410kts
20-Feb-18 19:32 61.890294 -36.516974 236 37784ft 409kts
20-Feb-18 19:33 61.840675 -36.733147 236 37781ft 408kts
20-Feb-18 19:34 61.791355 -36.948761 236 37778ft 409kts
20-Feb-18 19:35 61.740786 -37.164913 236 37780ft 414kts
20-Feb-18 19:36 61.689243 -37.382054 237 37779ft 414kts
20-Feb-18 19:37 61.637587 -37.598480 237 37778ft 415kts
20-Feb-18 19:38 61.584924 -37.812914 236 37778ft 414kts
20-Feb-18 19:39 61.532134 -38.027021 236 37779ft 414kts
20-Feb-18 19:40 61.478837 -38.240119 236 37778ft 414kts
20-Feb-18 19:41 61.424864 -38.452678 236 37777ft 414kts
20-Feb-18 19:42 61.371393 -38.660107 235 37777ft 414kts
20-Feb-18 19:43 61.315932 -38.869242 234 37777ft 413kts
20-Feb-18 19:44 61.259859 -39.078965 235 37777ft 421kts
20-Feb-18 19:45 61.202209 -39.291664 235 37777ft 422kts
20-Feb-18 19:46 61.144405 -39.502795 235 37776ft 423kts
20-Feb-18 19:47 61.085701 -39.712208 233 37776ft 421kts
20-Feb-18 19:48 61.026114 -39.919341 233 37743ft 422kts
20-Feb-18 19:49 60.973204 -40.134507 243 37588ft 430kts
20-Feb-18 19:50 60.927036 -40.359987 240 37584ft 427kts
20-Feb-18 19:51 60.879353 -40.578750 240 37593ft 427kts
20-Feb-18 19:52 60.830093 -40.797432 239 37590ft 425kts
20-Feb-18 19:53 60.779617 -41.017132 240 37588ft 430kts
20-Feb-18 19:54 60.728270 -41.238335 240 37588ft 430kts
20-Feb-18 19:55 60.676996 -41.458616 240 37590ft 431kts
20-Feb-18 19:56 60.625208 -41.677376 239 37591ft 430kts
20-Feb-18 19:57 60.572259 -41.895107 239 37590ft 430kts
20-Feb-18 19:58 60.519203 -42.112464 239 37589ft 430kts
20-Feb-18 19:59 60.465543 -42.328728 239 37588ft 430kts
20-Feb-18 20:00 60.410965 -42.541677 239 37991ft 432kts
20-Feb-18 20:01 60.355067 -42.757983 239 38002ft 439kts
20-Feb-18 20:02 60.298533 -42.975264 239 38004ft 438kts
20-Feb-18 20:03 60.240284 -43.191756 240 38001ft 445kts
20-Feb-18 20:04 60.181200 -43.410404 240 38000ft 444kts
20-Feb-18 20:05 60.122075 -43.628284 240 38000ft 446kts
20-Feb-18 20:06 60.062398 -43.843405 239 38002ft 445kts
20-Feb-18 20:07 60.002105 -44.059344 239 38000ft 445kts
20-Feb-18 20:08 59.941569 -44.274354 239 38001ft 445kts
20-Feb-18 20:09 59.880077 -44.488166 238 38001ft 445kts
20-Feb-18 20:10 59.817965 -44.700000 238 38001ft 445kts
20-Feb-18 20:11 59.755605 -44.911856 238 38002ft 445kts
20-Feb-18 20:12 59.692093 -45.122230 239 38001ft 445kts
20-Feb-18 20:13 59.628026 -45.331373 239 38000ft 445kts
20-Feb-18 20:14 59.563718 -45.539939 239 38000ft 446kts
20-Feb-18 20:15 59.498871 -45.746823 238 38002ft 445kts
20-Feb-18 20:16 59.433705 -45.952945 238 38001ft 445kts
20-Feb-18 20:17 59.368083 -46.158623 238 38001ft 445kts
20-Feb-18 20:18 59.301957 -46.363553 238 38000ft 445kts
20-Feb-18 20:19 59.235361 -46.567664 238 38002ft 445kts
20-Feb-18 20:20 59.168134 -46.770107 237 38003ft 445kts
20-Feb-18 20:21 59.100475 -46.971284 237 38002ft 444kts
20-Feb-18 20:22 59.032604 -47.170454 238 37999ft 444kts
20-Feb-18 20:23 58.964522 -47.368180 238 37999ft 438kts
20-Feb-18 20:24 58.896605 -47.562427 239 38001ft 435kts
20-Feb-18 20:25 58.828013 -47.752986 239 38004ft 435kts
20-Feb-18 20:26 58.760334 -47.945386 239 38001ft 434kts
20-Feb-18 20:27 58.692380 -48.137132 239 37999ft 434kts
20-Feb-18 20:28 58.623992 -48.328298 239 37999ft 434kts
20-Feb-18 20:29 58.555570 -48.517746 239 38000ft 434kts
20-Feb-18 20:30 58.487521 -48.703696 238 38003ft 435kts
20-Feb-18 20:31 58.417773 -48.892116 238 38002ft 434kts
20-Feb-18 20:32 58.347882 -49.079296 239 38001ft 434kts
20-Feb-18 20:33 58.277430 -49.264261 240 38001ft 433kts
20-Feb-18 20:34 58.207308 -49.449627 240 38000ft 433kts
20-Feb-18 20:35 58.137159 -49.633968 240 38000ft 432kts
20-Feb-18 20:36 58.066146 -49.817980 239 38002ft 434kts
20-Feb-18 20:37 57.997500 -50.003834 243 38000ft 430kts
20-Feb-18 20:38 57.925789 -50.186365 240 38004ft 433kts
20-Feb-18 20:39 57.856856 -50.371342 240 38000ft 432kts
20-Feb-18 20:40 57.788237 -50.555270 240 38000ft 432kts
20-Feb-18 20:41 57.718533 -50.739237 239 37999ft 434kts
20-Feb-18 20:42 57.648905 -50.922448 240 37957ft 434kts
20-Feb-18 20:43 57.579000 -51.102425 241 37750ft 427kts
20-Feb-18 20:44 57.509602 -51.280865 241 37724ft 428kts
20-Feb-18 20:45 57.440164 -51.459724 241 37723ft 427kts
20-Feb-18 20:46 57.370545 -51.637686 241 37724ft 427kts
20-Feb-18 20:47 57.300164 -51.814968 240 37725ft 428kts
20-Feb-18 20:48 57.241609 -51.962357 240 37724ft 428kts
20-Feb-18 20:49 57.159205 -52.168338 240 37724ft 428kts
20-Feb-18 20:50 57.100168 -52.314755 240 37723ft 428kts
20-Feb-18 20:51 57.028768 -52.487306 242 37725ft 423kts
20-Feb-18 20:52 56.957622 -52.657337 242 37725ft 419kts
20-Feb-18 20:53 56.886815 -52.826283 241 37721ft 421kts
20-Feb-18 20:54 56.815001 -52.992719 244 37723ft 414kts
20-Feb-18 20:55 56.744803 -53.158222 244 37723ft 412kts
20-Feb-18 20:56 56.675041 -53.323844 244 37723ft 412kts
20-Feb-18 20:57 56.605309 -53.488346 244 37722ft 413kts
20-Feb-18 20:58 56.535415 -53.652214 244 37722ft 412kts
20-Feb-18 20:59 56.464506 -53.816971 244 37724ft 414kts
20-Feb-18 21:00 56.394023 -53.979186 244 37723ft 411kts
20-Feb-18 21:01 56.323496 -54.141294 244 37724ft 411kts
20-Feb-18 21:02 56.252773 -54.302735 244 37724ft 412kts
20-Feb-18 21:03 56.181717 -54.463952 244 37724ft 412kts
20-Feb-18 21:04 56.110661 -54.624176 244 37724ft 411kts
20-Feb-18 21:05 56.039266 -54.784082 243 37726ft 412kts
20-Feb-18 21:06 55.967561 -54.943711 243 37727ft 413kts
20-Feb-18 21:07 55.895565 -55.100314 243 37723ft 410kts
20-Feb-18 21:08 55.821425 -55.252116 244 37723ft 404kts
20-Feb-18 21:09 55.749801 -55.405134 245 37721ft 404kts
20-Feb-18 21:10 55.678301 -55.557515 244 37720ft 403kts
20-Feb-18 21:11 55.606546 -55.709863 244 37722ft 407kts
20-Feb-18 21:12 55.534341 -55.862315 244 37727ft 405kts
20-Feb-18 21:13 55.462183 -56.014376 244 37725ft 404kts
20-Feb-18 21:14 55.389906 -56.165909 244 37726ft 405kts
20-Feb-18 21:15 55.317337 -56.317376 244 37728ft 405kts
20-Feb-18 21:16 55.244837 -56.467992 244 37723ft 406kts
20-Feb-18 21:17 55.172399 -56.617988 245 37722ft 405kts
20-Feb-18 21:18 55.099680 -56.767867 244 37725ft 407kts
20-Feb-18 21:19 55.026646 -56.917659 244 37727ft 406kts
20-Feb-18 21:20 54.953766 -57.063658 246 37730ft 398kts
20-Feb-18 21:21 54.882323 -57.207234 245 37719ft 398kts
20-Feb-18 21:22 54.810351 -57.350687 247 37718ft 394kts
20-Feb-18 21:23 54.739542 -57.494892 247 37721ft 393kts
20-Feb-18 21:24 54.668697 -57.638517 247 37719ft 394kts
20-Feb-18 21:25 54.597259 -57.782352 246 37726ft 395kts
20-Feb-18 21:26 54.526130 -57.925326 246 37724ft 398kts
20-Feb-18 21:27 54.454518 -58.068682 246 37731ft 392kts
20-Feb-18 21:28 54.383074 -58.211309 246 37727ft 395kts
20-Feb-18 21:29 54.311186 -58.353789 246 37765ft 395kts
20-Feb-18 21:30 54.239437 -58.495318 246 38105ft 395kts
20-Feb-18 21:31 54.167768 -58.636625 247 38271ft 397kts
20-Feb-18 21:32 54.097483 -58.773625 245 38270ft 399kts
20-Feb-18 21:33 54.025209 -58.914651 246 38267ft 394kts
20-Feb-18 21:34 53.953637 -59.054135 245 38265ft 391kts
20-Feb-18 21:35 53.882739 -59.191026 245 38266ft 393kts
20-Feb-18 21:36 53.810620 -59.328819 246 38264ft 391kts
20-Feb-18 21:37 53.739143 -59.466475 245 38265ft 390kts
20-Feb-18 21:38 53.667688 -59.603592 246 38260ft 391kts
20-Feb-18 21:39 53.596200 -59.739217 245 38270ft 394kts
20-Feb-18 21:40 53.523922 -59.877062 246 38269ft 391kts
20-Feb-18 21:41 53.452493 -60.013762 245 38265ft 393kts
20-Feb-18 21:42 53.381333 -60.151337 246 38266ft 390kts
20-Feb-18 21:43 53.317246 -60.291902 259 38262ft 363kts
20-Feb-18 21:44 53.237200 -60.417115 240 38274ft 407kts
20-Feb-18 21:45 53.160797 -60.549580 244 38267ft 393kts
20-Feb-18 21:46 53.086974 -60.681312 243 38271ft 399kts
20-Feb-18 21:47 53.011529 -60.815236 244 38270ft 399kts
20-Feb-18 21:48 52.935686 -60.950241 244 38270ft 402kts
20-Feb-18 21:49 52.860782 -61.082254 244 38264ft 397kts
20-Feb-18 21:50 52.786266 -61.214399 244 38263ft 392kts
20-Feb-18 21:51 52.712042 -61.345980 244 38264ft 393kts
20-Feb-18 21:52 52.637674 -61.477210 244 38262ft 393kts
20-Feb-18 21:53 52.563211 -61.608229 244 38402ft 393kts
20-Feb-18 21:54 52.489631 -61.736978 243 38632ft 395kts
20-Feb-18 21:55 52.415434 -61.867196 243 38932ft 396kts
20-Feb-18 21:56 52.340882 -61.997745 244 39240ft 394kts
20-Feb-18 21:57 52.266379 -62.127921 244 39451ft 395kts
20-Feb-18 21:58 52.191809 -62.257782 244 39651ft 394kts
20-Feb-18 21:59 52.117428 -62.387059 244 39787ft 394kts
20-Feb-18 22:00 52.043600 -62.515593 244 40074ft 390kts
20-Feb-18 22:01 51.969702 -62.643666 244 40136ft 390kts
20-Feb-18 22:02 51.897130 -62.768969 243 40252ft 393kts
20-Feb-18 22:03 51.822118 -62.894369 243 40264ft 392kts
20-Feb-18 22:04 51.748362 -63.021482 243 40258ft 387kts
20-Feb-18 22:05 51.675815 -63.146601 243 40255ft 384kts
20-Feb-18 22:06 51.603075 -63.271205 243 40261ft 386kts
20-Feb-18 22:07 51.530415 -63.395451 244 40260ft 383kts
20-Feb-18 22:08 51.457661 -63.519564 243 40253ft 385kts
20-Feb-18 22:09 51.384628 -63.643724 243 40251ft 385kts
20-Feb-18 22:10 51.312883 -63.766329 243 40263ft 386kts
20-Feb-18 22:11 51.240274 -63.889535 243 40259ft 386kts
20-Feb-18 22:12 51.167683 -64.012466 243 40257ft 387kts
20-Feb-18 22:13 51.094668 -64.135795 243 40256ft 386kts
20-Feb-18 22:14 51.021727 -64.259032 243 40255ft 387kts
20-Feb-18 22:15 50.947851 -64.382831 243 40251ft 392kts
20-Feb-18 22:16 50.874659 -64.503298 242 40261ft 399kts
20-Feb-18 22:17 50.798499 -64.628025 244 40253ft 394kts
20-Feb-18 22:18 50.724575 -64.752659 244 40256ft 396kts
20-Feb-18 22:19 50.649800 -64.877710 243 40256ft 393kts
20-Feb-18 22:20 50.576085 -65.001408 243 40255ft 389kts
20-Feb-18 22:21 50.501874 -65.123269 242 40261ft 388kts
20-Feb-18 22:22 50.426977 -65.244762 242 40255ft 388kts
20-Feb-18 22:23 50.353027 -65.364679 242 40251ft 388kts
20-Feb-18 22:24 50.277976 -65.486107 242 40258ft 387kts
20-Feb-18 22:25 50.203668 -65.606500 243 40258ft 387kts
20-Feb-18 22:26 50.129570 -65.727165 242 40266ft 390kts
20-Feb-18 22:27 50.054634 -65.848410 242 40263ft 389kts
20-Feb-18 22:28 49.979783 -65.969502 243 40261ft 388kts
20-Feb-18 22:29 49.905507 -66.090786 243 40259ft 388kts
20-Feb-18 22:30 49.830792 -66.208619 243 40252ft 388kts
20-Feb-18 22:31 49.756447 -66.329878 243 40258ft 388kts
20-Feb-18 22:32 49.682730 -66.450021 243 40252ft 387kts
20-Feb-18 22:33 49.608473 -66.571078 243 40258ft 389kts
20-Feb-18 22:34 49.535628 -66.690088 243 40257ft 389kts
20-Feb-18 22:35 49.461601 -66.810803 243 40254ft 388kts
20-Feb-18 22:36 49.387441 -66.931292 243 40260ft 389kts
20-Feb-18 22:37 49.313727 -67.051185 243 40263ft 385kts
20-Feb-18 22:38 49.241230 -67.169674 242 40255ft 379kts
20-Feb-18 22:39 49.169263 -67.286877 243 40256ft 380kts
20-Feb-18 22:40 49.096853 -67.404284 242 40256ft 380kts
20-Feb-18 22:41 49.024753 -67.522924 242 40254ft 389kts
20-Feb-18 22:42 48.950408 -67.645357 241 40256ft 398kts
20-Feb-18 22:43 48.875826 -67.765630 239 40258ft 402kts
20-Feb-18 22:44 48.799348 -67.887500 240 40255ft 402kts
20-Feb-18 22:45 48.723503 -68.009919 240 40254ft 401kts
20-Feb-18 22:46 48.647553 -68.132766 240 40256ft 399kts
20-Feb-18 22:47 48.571927 -68.254841 240 40256ft 400kts
20-Feb-18 22:48 48.496335 -68.376722 240 40260ft 400kts
20-Feb-18 22:49 48.420754 -68.498624 240 40261ft 399kts
20-Feb-18 22:50 48.345569 -68.619718 241 40256ft 399kts
20-Feb-18 22:51 48.272609 -68.736899 240 40255ft 402kts
20-Feb-18 22:52 48.197479 -68.857807 240 40261ft 400kts
20-Feb-18 22:53 48.122371 -68.979078 240 40260ft 396kts
20-Feb-18 22:54 48.048988 -69.098017 240 40260ft 393kts
20-Feb-18 22:55 47.975813 -69.216548 239 40259ft 391kts
20-Feb-18 22:56 47.902435 -69.335371 240 40248ft 392kts
20-Feb-18 22:57 47.830762 -69.451434 241 40256ft 392kts
20-Feb-18 22:58 47.761347 -69.572062 246 40254ft 381kts
20-Feb-18 22:59 47.669214 -69.655854 215 40245ft 442kts
20-Feb-18 23:00 47.584397 -69.724700 225 40227ft 418kts
20-Feb-18 23:01 47.470243 -69.828957 223 40235ft 423kts
20-Feb-18 23:02 47.373175 -69.916352 224 40234ft 421kts
20-Feb-18 23:03 47.292452 -69.989131 224 40237ft 420kts
20-Feb-18 23:04 47.178602 -70.091174 224 40240ft 420kts
20-Feb-18 23:05 47.097010 -70.163843 224 40235ft 422kts
20-Feb-18 23:06 46.997374 -70.252984 223 40256ft 421kts
20-Feb-18 23:07 46.898874 -70.342790 223 40296ft 428kts
20-Feb-18 23:08 46.804356 -70.427925 222 40312ft 430kts
20-Feb-18 23:09 46.706389 -70.515722 222 40307ft 429kts
20-Feb-18 23:10 46.610001 -70.602199 222 40264ft 429kts
20-Feb-18 23:11 46.518910 -70.683681 221 40263ft 432kts
20-Feb-18 23:12 46.427121 -70.765976 222 40258ft 429kts
20-Feb-18 23:13 46.331644 -70.852063 222 40254ft 427kts
20-Feb-18 23:14 46.237548 -70.936894 222 40257ft 421kts
20-Feb-18 23:15 46.141076 -71.024078 222 40254ft 415kts
20-Feb-18 23:16 46.047745 -71.108603 222 40251ft 413kts
20-Feb-18 23:17 45.953785 -71.193827 222 40249ft 413kts
20-Feb-18 23:18 45.865592 -71.273728 222 40246ft 414kts
20-Feb-18 23:19 45.774265 -71.356588 223 40234ft 412kts
20-Feb-18 23:20 45.683107 -71.439675 223 40216ft 414kts
20-Feb-18 23:21 45.594823 -71.520417 223 40201ft 413kts
20-Feb-18 23:22 45.505568 -71.602397 223 40196ft 413kts
20-Feb-18 23:23 45.415052 -71.685833 223 40217ft 415kts
20-Feb-18 23:24 45.322162 -71.777228 229 40210ft 405kts
20-Feb-18 23:25 45.228355 -71.844919 215 40214ft 427kts
20-Feb-18 23:26 45.130283 -71.918146 219 40209ft 418kts
20-Feb-18 23:27 45.031353 -71.994698 219 40212ft 426kts
20-Feb-18 23:28 44.930792 -72.073262 219 40211ft 430kts
20-Feb-18 23:29 44.838468 -72.144975 219 40220ft 429kts
20-Feb-18 23:30 44.747808 -72.215608 219 40221ft 429kts
20-Feb-18 23:31 44.656763 -72.286706 219 40132ft 429kts
20-Feb-18 23:32 44.564912 -72.358428 219 39964ft 429kts
20-Feb-18 23:33 44.471628 -72.431338 219 39784ft 429kts
20-Feb-18 23:34 44.376773 -72.505552 219 39599ft 428kts
20-Feb-18 23:35 44.278350 -72.582660 219 39379ft 429kts
20-Feb-18 23:36 44.182745 -72.657575 219 39099ft 428kts
20-Feb-18 23:37 44.080108 -72.737701 219 38814ft 429kts
20-Feb-18 23:38 43.985183 -72.812220 219 38444ft 429kts
20-Feb-18 23:39 43.889739 -72.887180 219 37844ft 429kts
20-Feb-18 23:40 43.808891 -72.950417 219 37108ft 428kts
20-Feb-18 23:41 43.712848 -73.026189 219 36215ft 427kts
20-Feb-18 23:42 43.616493 -73.102566 219 35302ft 426kts
20-Feb-18 23:43 43.518808 -73.180118 219 34372ft 425kts
20-Feb-18 23:44 43.419086 -73.259321 219 33413ft 427kts
20-Feb-18 23:45 43.317900 -73.339753 219 32442ft 428kts
20-Feb-18 23:46 43.215555 -73.421101 219 31449ft 430kts
20-Feb-18 23:47 43.114168 -73.501865 218 30458ft 433kts
20-Feb-18 23:48 43.010832 -73.584491 218 29441ft 437kts
20-Feb-18 23:49 42.910663 -73.665796 216 28457ft 438kts
20-Feb-18 23:50 42.828867 -73.731934 216 27715ft 437kts
20-Feb-18 23:51 42.749136 -73.799364 220 27281ft 425kts
20-Feb-18 23:52 42.652998 -73.838535 202 27281ft 448kts
20-Feb-18 23:53 42.539928 -73.887900 204 26439ft 437kts
20-Feb-18 23:54 42.428044 -73.938295 205 25712ft 432kts
20-Feb-18 23:55 42.315601 -73.989722 205 25345ft 431kts
20-Feb-18 23:56 42.206511 -74.043985 200 25284ft 435kts
20-Feb-18 23:57 42.092983 -74.090036 206 23975ft 418kts
20-Feb-18 23:58 41.986103 -74.135430 204 22159ft 408kts
20-Feb-18 23:59 41.885008 -74.181631 206 20366ft 395kts
21-Feb-18 00:00 41.813743 -74.213191 199 19109ft 393kts
21-Feb-18 00:01 41.733663 -74.246947 204 17389ft 377kts
21-Feb-18 00:02 41.645453 -74.288782 199 15632ft 369kts
21-Feb-18 00:03 41.555951 -74.326305 205 13914ft 356kts
21-Feb-18 00:04 41.466015 -74.364010 203 12202ft 348kts
21-Feb-18 00:05 41.383899 -74.400350 199 10948ft 350kts
21-Feb-18 00:06 41.306516 -74.433507 205 10339ft 312kts
21-Feb-18 00:07 41.233402 -74.462842 202 10083ft 284kts
21-Feb-18 00:08 41.162360 -74.492594 200 9638ft 277kts
21-Feb-18 00:09 41.107442 -74.437322 117 8437ft 304kts
21-Feb-18 00:10 41.071882 -74.343772 118 7118ft 297kts
21-Feb-18 00:11 41.040403 -74.256339 117 6263ft 276kts
21-Feb-18 00:12 41.028494 -74.173894 63 5582ft 257kts
21-Feb-18 00:13 41.054274 -74.097194 92 4768ft 237kts
21-Feb-18 00:14 41.043963 -74.028371 108 4226ft 212kts
21-Feb-18 00:15 41.009809 -73.994976 177 3690ft 179kts
21-Feb-18 00:16 40.972402 -74.008102 200 3053ft 160kts
21-Feb-18 00:17 40.937614 -74.023957 193 2515ft 160kts
21-Feb-18 00:18 40.904183 -74.034238 199 2504ft 160kts
21-Feb-18 00:19 40.873905 -74.050055 203 2505ft 161kts
21-Feb-18 00:20 40.841504 -74.069845 205 2505ft 160kts
21-Feb-18 00:21 40.812071 -74.088513 205 2490ft 141kts
21-Feb-18 00:22 40.783330 -74.106857 205 1900ft 141kts
21-Feb-18 00:23 40.755766 -74.124449 205 1299ft 140kts
21-Feb-18 00:24 40.728613 -74.141762 205 713ft 139kts
21-Feb-18 00:25 40.702104 -74.158596 205 121ft 137kts
21-Feb-18 00:26 40.684248 -74.170022 210 26ft 34kts
21-Feb-18 00:27 40.681469 -74.174562 289 26ft 6kts
21-Feb-18 00:28 40.683207 -74.177212 8 26ft 13kts
21-Feb-18 00:29 40.686067 -74.175398 26 26ft 16kts
21-Feb-18 00:30 40.688420 -74.173947 26 26ft 9kts
21-Feb-18 00:31 40.689647 -74.173142 26 26ft 0kts
21-Feb-18 00:32 40.689691 -74.173113 26 26ft 0kts
21-Feb-18 00:33 40.690451 -74.173968 262 26ft 6kts
21-Feb-18 00:34 40.690334 -74.174844 259 26ft 0kts
21-Feb-18 00:35 40.690327 -74.174891 259 26ft 0kts
21-Feb-18 00:36 40.690327 -74.174891 259 26ft 0kts
21-Feb-18 00:37 40.736339 -74.136837 205 879ft 139kts
21-Feb-18 00:38 40.692779 -74.164576 206 26ft 117kts
21-Feb-18 00:39 40.692447 -74.164783 206 26ft 115kts
21-Feb-18 00:40 40.690327 -74.174891 259 26ft 0kts

Navigation Log

Ident Type
Flight plan parsing failed, navigation log unavailable